Time;durP1;ratioP1;P1;durP2;ratioP2;P2;SDS_P1;SDS_P2;PMS_P1;PMS_P2;Temp;Humidity;BMP_temperature;BMP_pressure;BME280_temperature;BME280_humidity;BME280_pressure;Samples;Min_cycle;Max_cycle;Signal;HPM_P1;HPM_P2
2024/01/02 00:00:40;;;;;;;17.48;4.68;;;6.30;99.90;;;;;;5030086;28;20453;-76
2024/01/02 00:03:06;;;;;;;15.23;4.88;;;6.30;99.90;;;;;;5028215;28;22100;-76
2024/01/02 00:05:31;;;;;;;13.63;4.40;;;6.30;99.90;;;;;;5019285;28;20107;-76
2024/01/02 00:07:57;;;;;;;13.43;4.10;;;6.30;99.90;;;;;;5028348;28;20068;-75
2024/01/02 00:10:23;;;;;;;13.10;4.32;;;6.30;99.90;;;;;;5027940;28;20041;-76
2024/01/02 00:12:48;;;;;;;13.60;4.10;;;6.30;99.90;;;;;;5031805;28;20049;-76
2024/01/02 00:15:14;;;;;;;14.73;4.10;;;6.30;99.90;;;;;;5026740;28;20049;-76
2024/01/02 00:17:39;;;;;;;12.43;3.75;;;6.40;99.90;;;;;;5031201;28;20036;-76
2024/01/02 00:20:07;;;;;;;12.68;3.72;;;6.40;99.90;;;;;;5025243;28;20045;-76
2024/01/02 00:22:32;;;;;;;10.02;3.60;;;6.40;99.90;;;;;;5037325;28;20041;-76
2024/01/02 00:24:58;;;;;;;12.32;3.90;;;6.40;99.90;;;;;;5022513;28;20046;-75
2024/01/02 00:27:24;;;;;;;9.18;2.25;;;6.40;99.90;;;;;;5028663;28;20131;-75
2024/01/02 00:29:50;;;;;;;10.52;3.72;;;6.40;99.90;;;;;;5028322;28;20045;-76
2024/01/02 00:32:15;;;;;;;5.18;1.80;;;6.40;99.90;;;;;;5026330;28;20053;-76
2024/01/02 00:34:41;;;;;;;6.68;1.95;;;6.40;99.90;;;;;;5030974;28;20611;-76
2024/01/02 00:37:07;;;;;;;12.07;3.40;;;6.40;99.90;;;;;;5021295;28;20405;-75
2024/01/02 00:39:32;;;;;;;9.02;2.50;;;6.40;99.90;;;;;;5022791;28;20115;-76
2024/01/02 00:41:58;;;;;;;8.38;2.67;;;6.50;99.90;;;;;;5024641;28;20488;-75
2024/01/02 00:44:23;;;;;;;11.82;3.03;;;6.40;99.90;;;;;;5024930;28;20048;-76
2024/01/02 00:46:49;;;;;;;10.77;2.65;;;6.50;99.90;;;;;;5021991;28;20459;-76
2024/01/02 00:49:15;;;;;;;11.85;3.58;;;6.50;99.90;;;;;;5023116;28;20532;-76
2024/01/02 00:51:40;;;;;;;14.63;3.53;;;6.50;99.90;;;;;;5027384;28;20038;-76
2024/01/02 00:54:06;;;;;;;12.52;3.22;;;6.60;99.90;;;;;;5021595;28;20079;-75
2024/01/02 00:56:31;;;;;;;7.90;1.67;;;6.50;99.90;;;;;;5058015;28;20041;-76
2024/01/02 00:58:57;;;;;;;14.30;3.15;;;6.50;99.90;;;;;;5026142;28;20052;-75
2024/01/02 01:01:23;;;;;;;14.10;3.70;;;6.50;99.90;;;;;;5024897;28;20472;-76
2024/01/02 01:03:48;;;;;;;9.35;2.03;;;6.50;99.90;;;;;;5029612;28;20525;-75
2024/01/02 01:06:14;;;;;;;13.20;3.55;;;6.40;99.90;;;;;;5027369;28;20048;-75
2024/01/02 01:08:40;;;;;;;15.90;4.00;;;6.40;99.90;;;;;;5015141;28;20049;-76
2024/01/02 01:11:05;;;;;;;15.85;3.92;;;6.50;99.90;;;;;;5017707;28;20068;-75
2024/01/02 01:13:31;;;;;;;15.20;4.20;;;6.50;99.90;;;;;;5022178;28;20156;-75
2024/01/02 01:15:56;;;;;;;16.08;4.05;;;6.50;99.90;;;;;;5023999;28;20041;-76
2024/01/02 01:18:22;;;;;;;14.05;3.70;;;6.50;99.90;;;;;;5029636;28;20037;-76
2024/01/02 01:20:48;;;;;;;20.35;4.47;;;6.50;99.90;;;;;;5026704;28;20053;-75
2024/01/02 01:23:13;;;;;;;17.65;4.78;;;6.50;99.90;;;;;;5029161;28;20439;-76
2024/01/02 01:25:39;;;;;;;20.05;4.93;;;6.50;99.90;;;;;;5027177;28;20639;-76
2024/01/02 01:28:05;;;;;;;18.65;4.93;;;6.50;99.90;;;;;;5023475;28;20033;-76
2024/01/02 01:30:30;;;;;;;11.43;2.15;;;6.50;99.90;;;;;;5033911;28;20041;-76
2024/01/02 01:32:56;;;;;;;15.98;4.50;;;6.50;99.90;;;;;;5031556;28;20603;-76
2024/01/02 01:35:22;;;;;;;18.40;4.85;;;6.40;99.90;;;;;;5057908;28;20052;-76
2024/01/02 01:37:47;;;;;;;18.13;5.13;;;6.50;99.90;;;;;;5028381;28;20049;-75
2024/01/02 01:40:13;;;;;;;19.73;5.20;;;6.50;99.90;;;;;;5027349;28;20038;-75
2024/01/02 01:42:39;;;;;;;11.43;2.42;;;6.50;99.90;;;;;;5029600;28;20059;-76
2024/01/02 01:45:05;;;;;;;19.00;5.45;;;6.40;99.90;;;;;;5035901;28;20033;-75
2024/01/02 01:47:31;;;;;;;18.70;5.50;;;6.40;99.90;;;;;;5037092;28;20051;-75
2024/01/02 01:49:57;;;;;;;19.35;5.50;;;6.50;99.90;;;;;;5032129;28;20597;-75
2024/01/02 01:52:24;;;;;;;16.40;4.95;;;6.40;99.90;;;;;;5027847;28;20049;-76
2024/01/02 01:54:50;;;;;;;22.00;6.20;;;6.50;99.90;;;;;;5039282;28;20489;-76
2024/01/02 01:57:16;;;;;;;23.13;6.00;;;6.50;99.90;;;;;;5027530;28;20076;-75
2024/01/02 01:59:44;;;;;;;18.05;5.25;;;6.50;99.90;;;;;;5034639;28;20103;-75
2024/01/02 02:02:11;;;;;;;17.90;5.60;;;6.60;99.90;;;;;;5033620;28;20051;-76
2024/01/02 02:04:44;;;;;;;21.67;6.63;;;6.60;99.90;;;;;;5040582;28;20049;-76
2024/01/02 02:07:11;;;;;;;16.50;5.72;;;6.60;99.90;;;;;;5034704;28;20044;-75
2024/01/02 02:09:37;;;;;;;20.63;6.03;;;6.60;99.90;;;;;;5033417;28;20095;-76
2024/01/02 02:12:03;;;;;;;18.05;6.22;;;6.50;99.90;;;;;;5032336;28;20033;-76
2024/01/02 02:14:29;;;;;;;17.98;6.28;;;6.60;99.90;;;;;;5032479;28;20080;-76
2024/01/02 02:16:54;;;;;;;19.65;6.35;;;6.60;99.90;;;;;;5031989;28;20080;-75
2024/01/02 02:19:20;;;;;;;16.05;5.55;;;6.60;99.90;;;;;;5031323;28;20056;-76
2024/01/02 02:21:48;;;;;;;22.98;6.88;;;6.60;99.90;;;;;;5063254;28;20041;-76
2024/01/02 02:24:13;;;;;;;19.17;6.30;;;6.60;99.90;;;;;;5030410;28;20619;-76
2024/01/02 02:26:39;;;;;;;15.60;6.35;;;6.60;99.90;;;;;;5062200;28;20045;-76
2024/01/02 02:29:05;;;;;;;15.93;6.10;;;6.60;99.90;;;;;;5028453;28;20037;-76
2024/01/02 02:31:30;;;;;;;22.08;6.63;;;6.70;99.90;;;;;;5034569;28;20477;-75
2024/01/02 02:33:56;;;;;;;20.23;6.30;;;6.60;99.90;;;;;;5035345;28;20514;-76
2024/01/02 02:36:22;;;;;;;20.00;5.97;;;6.60;99.90;;;;;;5031668;28;20042;-75
2024/01/02 02:38:47;;;;;;;16.80;5.65;;;6.60;99.90;;;;;;5055050;28;20046;-76
2024/01/02 02:41:13;;;;;;;20.42;5.95;;;6.60;99.90;;;;;;5032554;28;20485;-76
2024/01/02 02:43:38;;;;;;;20.70;5.97;;;6.60;99.90;;;;;;5032422;28;20056;-75
2024/01/02 02:46:04;;;;;;;21.95;6.45;;;6.60;99.90;;;;;;5033619;28;20045;-76
2024/01/02 02:48:30;;;;;;;19.67;6.30;;;6.70;99.90;;;;;;5032742;28;20052;-76
2024/01/02 02:50:55;;;;;;;17.13;5.78;;;6.60;99.90;;;;;;5031950;28;20095;-76
2024/01/02 02:53:21;;;;;;;17.95;6.05;;;6.70;99.90;;;;;;5029836;28;20069;-76
2024/01/02 02:55:46;;;;;;;17.45;5.93;;;6.70;99.90;;;;;;5030612;28;20037;-76
2024/01/02 02:58:12;;;;;;;19.60;6.97;;;6.70;99.90;;;;;;5029825;28;20342;-75
2024/01/02 03:00:38;;;;;;;15.82;5.97;;;6.70;99.90;;;;;;5028833;28;20040;-76
2024/01/02 03:03:04;;;;;;;17.50;6.45;;;6.70;99.90;;;;;;5025978;28;20061;-76
2024/01/02 03:05:29;;;;;;;14.27;5.90;;;6.60;99.90;;;;;;5032719;28;20045;-76
2024/01/02 03:07:57;;;;;;;18.83;5.60;;;6.60;99.90;;;;;;5034402;28;20385;-76
2024/01/02 03:10:23;;;;;;;19.92;5.50;;;6.60;99.90;;;;;;5027225;28;20037;-76
2024/01/02 03:12:49;;;;;;;16.88;5.88;;;6.70;99.90;;;;;;5035780;28;20042;-76
2024/01/02 03:15:15;;;;;;;14.95;5.47;;;6.70;99.90;;;;;;5034593;28;20036;-76
2024/01/02 03:17:41;;;;;;;7.03;2.28;;;6.70;99.90;;;;;;5024695;28;20095;-75
2024/01/02 03:20:07;;;;;;;10.27;2.40;;;6.60;99.90;;;;;;5034910;28;20519;-76
2024/01/02 03:22:33;;;;;;;8.75;2.08;;;6.60;99.90;;;;;;5041868;28;20056;-76
2024/01/02 03:24:58;;;;;;;13.85;4.65;;;6.60;99.90;;;;;;5031462;28;20046;-76
2024/01/02 03:27:24;;;;;;;13.18;4.22;;;6.60;99.90;;;;;;5034234;28;20461;-75
2024/01/02 03:29:50;;;;;;;13.88;4.80;;;6.60;99.90;;;;;;5034237;28;20591;-76
2024/01/02 03:32:15;;;;;;;15.93;4.70;;;6.70;99.90;;;;;;5029359;28;20037;-76
2024/01/02 03:34:41;;;;;;;17.27;5.00;;;6.70;99.90;;;;;;5033226;28;20041;-76
2024/01/02 03:37:08;;;;;;;16.40;4.68;;;6.70;99.90;;;;;;5024731;28;20978;-76
2024/01/02 03:39:37;;;;;;;12.75;4.80;;;6.70;99.90;;;;;;5027816;28;20497;-76
2024/01/02 03:42:03;;;;;;;16.20;4.50;;;6.70;99.90;;;;;;5025101;28;20073;-76
2024/01/02 03:44:29;;;;;;;13.80;4.60;;;6.70;99.90;;;;;;5035390;28;20072;-75
2024/01/02 03:46:56;;;;;;;13.23;4.43;;;6.70;99.90;;;;;;5043710;28;20104;-76
2024/01/02 03:49:23;;;;;;;6.43;2.15;;;6.70;99.90;;;;;;5027990;28;20466;-76
2024/01/02 03:51:48;;;;;;;11.55;4.68;;;6.60;99.90;;;;;;5023461;28;20057;-76
2024/01/02 03:54:14;;;;;;;11.80;4.22;;;6.70;99.90;;;;;;5029498;28;20140;-76
2024/01/02 03:56:39;;;;;;;6.38;2.50;;;6.70;99.90;;;;;;5033652;28;20525;-76
2024/01/02 03:59:05;;;;;;;12.80;4.65;;;6.70;99.90;;;;;;5029985;28;20041;-75
2024/01/02 04:01:30;;;;;;;10.85;4.00;;;6.70;99.90;;;;;;5033093;28;20068;-76
2024/01/02 04:03:56;;;;;;;8.02;2.22;;;6.70;99.90;;;;;;5033609;28;20053;-76
2024/01/02 04:06:22;;;;;;;12.55;3.90;;;6.70;99.90;;;;;;5041537;28;20055;-76
2024/01/02 04:08:47;;;;;;;7.07;1.77;;;6.70;99.90;;;;;;5026778;28;20041;-75
2024/01/02 04:11:13;;;;;;;10.60;3.95;;;6.60;99.90;;;;;;5027759;28;20041;-76
2024/01/02 04:13:39;;;;;;;7.60;3.95;;;6.70;99.90;;;;;;5031078;28;20046;-76
2024/01/02 04:16:05;;;;;;;11.63;4.47;;;6.70;99.90;;;;;;5029163;28;20393;-76
2024/01/02 04:18:31;;;;;;;6.07;2.10;;;6.70;99.90;;;;;;5062005;28;20839;-76
2024/01/02 04:20:56;;;;;;;9.10;3.63;;;6.70;99.90;;;;;;5026589;28;20152;-76
2024/01/02 04:23:22;;;;;;;11.05;3.90;;;6.70;99.90;;;;;;5029484;28;20033;-76
2024/01/02 04:25:48;;;;;;;10.95;3.85;;;6.70;99.90;;;;;;5020328;28;20119;-76
2024/01/02 04:28:14;;;;;;;8.48;3.92;;;6.70;99.90;;;;;;5059645;28;20485;-75
2024/01/02 04:30:39;;;;;;;7.30;3.50;;;6.70;99.90;;;;;;5032436;28;20045;-76
2024/01/02 04:33:05;;;;;;;6.75;3.30;;;6.80;99.90;;;;;;5031919;28;20040;-76
2024/01/02 04:35:32;;;;;;;8.50;3.20;;;6.80;99.90;;;;;;5031111;28;20052;-76
2024/01/02 04:37:57;;;;;;;9.52;3.53;;;6.80;99.90;;;;;;5024733;28;20042;-76
2024/01/02 04:40:23;;;;;;;9.13;3.42;;;6.80;99.90;;;;;;5054425;28;20042;-76
2024/01/02 04:42:49;;;;;;;6.30;3.08;;;6.80;99.90;;;;;;5032060;28;20041;-76
2024/01/02 04:45:15;;;;;;;10.20;3.63;;;6.80;99.90;;;;;;5022339;28;20053;-76
2024/01/02 04:47:40;;;;;;;7.55;3.35;;;6.80;99.90;;;;;;5031750;28;20060;-76
2024/01/02 04:50:06;;;;;;;9.30;3.60;;;6.80;99.90;;;;;;5026431;28;20045;-75
2024/01/02 04:52:32;;;;;;;7.97;3.20;;;6.80;99.90;;;;;;5027970;28;20053;-76
2024/01/02 04:54:59;;;;;;;8.95;3.30;;;6.80;99.90;;;;;;5038490;28;20056;-76
2024/01/02 04:57:25;;;;;;;7.70;3.38;;;6.80;99.90;;;;;;5030900;28;20037;-76
2024/01/02 04:59:51;;;;;;;6.78;3.20;;;6.80;99.90;;;;;;5024136;28;20456;-76
2024/01/02 05:02:22;;;;;;;6.88;3.30;;;6.80;99.90;;;;;;5035011;28;20068;-76
2024/01/02 05:04:48;;;;;;;6.80;2.97;;;6.80;99.90;;;;;;5028820;28;20057;-76
2024/01/02 05:07:15;;;;;;;6.78;3.20;;;6.80;99.90;;;;;;5021097;28;20041;-76
2024/01/02 05:09:40;;;;;;;6.53;3.22;;;6.80;99.90;;;;;;5024816;28;20508;-76
2024/01/02 05:12:06;;;;;;;7.00;2.97;;;6.80;99.90;;;;;;5027166;28;20100;-76
2024/01/02 05:14:32;;;;;;;7.88;3.30;;;6.80;99.90;;;;;;5022358;28;20038;-76
2024/01/02 05:16:57;;;;;;;5.03;2.90;;;6.80;99.90;;;;;;5028568;28;20045;-76
2024/01/02 05:19:23;;;;;;;6.43;2.70;;;6.80;99.90;;;;;;5039373;28;20037;-76
2024/01/02 05:21:51;;;;;;;5.80;2.70;;;6.80;99.90;;;;;;5026444;28;20091;-76
2024/01/02 05:24:16;;;;;;;5.10;2.70;;;6.80;99.90;;;;;;5052404;28;20074;-76
2024/01/02 05:26:42;;;;;;;6.30;2.60;;;6.80;99.90;;;;;;5019073;28;20111;-76
2024/01/02 05:29:08;;;;;;;4.93;2.40;;;6.80;99.90;;;;;;5022172;28;20091;-75
2024/01/02 05:31:34;;;;;;;6.32;2.70;;;6.80;99.90;;;;;;5030393;28;20507;-76
2024/01/02 05:34:00;;;;;;;6.05;2.35;;;6.80;99.90;;;;;;5031774;28;20069;-76
2024/01/02 05:36:25;;;;;;;2.47;1.25;;;6.80;99.90;;;;;;5032333;28;20448;-76
2024/01/02 05:38:51;;;;;;;5.30;2.40;;;6.80;99.90;;;;;;5026482;28;20041;-76
2024/01/02 05:41:17;;;;;;;4.85;2.33;;;6.80;99.90;;;;;;5034253;28;20207;-76
2024/01/02 05:43:42;;;;;;;5.88;2.50;;;6.80;99.90;;;;;;5026443;28;20052;-76
2024/01/02 05:46:08;;;;;;;4.13;2.30;;;6.80;99.90;;;;;;5021298;28;20033;-75
2024/01/02 05:48:34;;;;;;;6.57;2.85;;;6.80;99.90;;;;;;5023389;28;20537;-75
2024/01/02 05:50:59;;;;;;;5.47;2.40;;;6.80;99.90;;;;;;5028761;28;20083;-76
2024/01/02 05:53:25;;;;;;;1.92;1.25;;;6.80;99.90;;;;;;5027170;28;20045;-76
2024/01/02 05:55:51;;;;;;;2.10;1.10;;;6.80;99.90;;;;;;5027751;28;20049;-76
2024/01/02 05:58:16;;;;;;;5.03;2.30;;;6.70;99.90;;;;;;5035250;28;20052;-76
2024/01/02 06:00:42;;;;;;;3.72;2.30;;;6.70;99.90;;;;;;5028603;28;20044;-75
2024/01/02 06:03:07;;;;;;;4.72;2.60;;;6.80;99.90;;;;;;5021533;28;20104;-76
2024/01/02 06:05:33;;;;;;;5.28;2.60;;;6.80;99.90;;;;;;5021475;28;20049;-76
2024/01/02 06:07:58;;;;;;;4.72;2.80;;;6.80;99.90;;;;;;5017715;28;20496;-76
2024/01/02 06:10:24;;;;;;;3.67;2.58;;;6.80;99.90;;;;;;5023582;28;20124;-76
2024/01/02 06:12:50;;;;;;;4.45;1.15;;;6.90;99.90;;;;;;5028138;28;20041;-76
2024/01/02 06:15:15;;;;;;;1.13;0.90;;;6.90;99.90;;;;;;5027837;28;20038;-76
2024/01/02 06:17:41;;;;;;;1.55;1.00;;;6.80;99.90;;;;;;5021944;28;20057;-76
2024/01/02 06:20:10;;;;;;;5.00;2.28;;;6.70;99.90;;;;;;5024365;28;20064;-76
2024/01/02 06:22:37;;;;;;;4.57;2.30;;;6.80;99.90;;;;;;5027651;28;20148;-76
2024/01/02 06:25:09;;;;;;;3.42;1.35;;;6.90;99.90;;;;;;5026237;28;20062;-76
2024/01/02 06:27:35;;;;;;;2.42;2.13;;;6.80;99.90;;;;;;5028026;28;20110;-76
2024/01/02 06:30:03;;;;;;;1.00;0.90;;;6.90;99.90;;;;;;5038668;28;20076;-75
2024/01/02 06:32:28;;;;;;;2.60;2.33;;;6.90;99.90;;;;;;5035600;28;20056;-76
2024/01/02 06:34:54;;;;;;;2.63;2.30;;;6.90;99.90;;;;;;5028746;28;20083;-75
2024/01/02 06:37:20;;;;;;;4.20;2.63;;;6.90;99.90;;;;;;5027092;28;20042;-76
2024/01/02 06:39:45;;;;;;;3.42;2.80;;;6.90;99.90;;;;;;5024460;28;20049;-76
2024/01/02 06:42:11;;;;;;;3.20;2.50;;;7.00;99.90;;;;;;5033508;28;20044;-76
2024/01/02 06:44:36;;;;;;;3.78;2.45;;;6.90;99.90;;;;;;5028054;28;20044;-76
2024/01/02 06:47:02;;;;;;;2.60;2.28;;;7.00;99.90;;;;;;5057022;28;20094;-76
2024/01/02 06:49:28;;;;;;;2.58;1.92;;;7.00;99.90;;;;;;5019045;28;20068;-75
2024/01/02 06:51:54;;;;;;;1.70;1.60;;;7.00;99.90;;;;;;5033632;28;20041;-75
2024/01/02 06:54:19;;;;;;;2.47;1.40;;;7.00;99.90;;;;;;5026424;28;20042;-75
2024/01/02 06:56:45;;;;;;;2.40;1.60;;;7.00;99.90;;;;;;5020643;28;20052;-75
2024/01/02 06:59:11;;;;;;;1.70;1.30;;;7.00;99.90;;;;;;5023783;28;20045;-75
2024/01/02 07:01:36;;;;;;;2.08;1.50;;;7.00;99.90;;;;;;5022876;28;20160;-75
2024/01/02 07:04:02;;;;;;;1.85;1.75;;;7.00;99.90;;;;;;5029476;28;20584;-73
2024/01/02 07:06:27;;;;;;;1.98;1.80;;;7.00;99.90;;;;;;5027852;28;20037;-76
2024/01/02 07:08:53;;;;;;;2.03;1.25;;;7.10;99.90;;;;;;5017083;28;20123;-76
2024/01/02 07:11:19;;;;;;;0.80;0.80;;;7.00;99.90;;;;;;5021681;28;20192;-76
2024/01/02 07:13:44;;;;;;;2.72;2.40;;;7.00;99.90;;;;;;5028909;28;20046;-76
2024/01/02 07:16:10;;;;;;;1.23;0.93;;;7.00;99.90;;;;;;5035869;28;20071;-76
2024/01/02 07:18:37;;;;;;;2.47;2.17;;;7.10;99.90;;;;;;5020537;28;20587;-76
2024/01/02 07:21:03;;;;;;;1.20;1.00;;;7.10;99.90;;;;;;5018702;28;20069;-76
2024/01/02 07:23:28;;;;;;;1.00;0.90;;;7.10;99.90;;;;;;5060125;28;20475;-76
2024/01/02 07:25:54;;;;;;;2.40;2.20;;;7.10;99.90;;;;;;5021349;28;20045;-76
2024/01/02 07:28:20;;;;;;;1.30;1.20;;;7.10;99.90;;;;;;5023604;28;20494;-76
2024/01/02 07:30:48;;;;;;;2.10;0.93;;;7.10;99.90;;;;;;5019680;28;20046;-76
2024/01/02 07:33:14;;;;;;;2.72;1.33;;;7.10;99.90;;;;;;5054366;28;20049;-75
2024/01/02 07:35:40;;;;;;;1.73;1.50;;;7.10;99.90;;;;;;5059531;28;20064;-76
2024/01/02 07:38:05;;;;;;;1.45;1.23;;;7.20;99.90;;;;;;5028601;28;20400;-76
2024/01/02 07:40:32;;;;;;;3.58;3.28;;;7.20;99.90;;;;;;5054348;28;20406;-76
2024/01/02 07:42:58;;;;;;;5.65;5.03;;;7.30;99.90;;;;;;5019386;28;20053;-76
2024/01/02 07:45:24;;;;;;;2.60;1.80;;;7.40;99.90;;;;;;5059816;28;20033;-76
2024/01/02 07:47:49;;;;;;;6.75;5.90;;;7.40;99.90;;;;;;5027083;28;20424;-76
2024/01/02 07:50:15;;;;;;;2.58;2.05;;;7.50;99.90;;;;;;5059789;28;20474;-76
2024/01/02 07:52:41;;;;;;;2.42;2.00;;;7.50;99.90;;;;;;5028306;28;20224;-77
2024/01/02 07:55:10;;;;;;;3.38;2.20;;;7.60;99.90;;;;;;5035169;28;20568;-77
2024/01/02 07:57:36;;;;;;;2.33;2.00;;;7.60;99.90;;;;;;5055005;28;20052;-76
2024/01/02 08:00:02;;;;;;;5.75;5.10;;;7.70;99.90;;;;;;5021014;28;20041;-75
2024/01/02 08:02:27;;;;;;;5.53;4.68;;;7.70;99.90;;;;;;5026626;28;20444;-74
2024/01/02 08:04:53;;;;;;;6.43;4.40;;;7.80;99.90;;;;;;5030530;28;20068;-75
2024/01/02 08:07:19;;;;;;;5.15;4.30;;;7.90;99.90;;;;;;5023632;28;20094;-75
2024/01/02 08:09:44;;;;;;;5.30;4.55;;;8.10;99.90;;;;;;5035929;28;20041;-78
2024/01/02 08:12:10;;;;;;;5.80;4.63;;;8.10;99.90;;;;;;5031378;28;20052;-77
2024/01/02 08:14:35;;;;;;;3.42;1.98;;;8.20;99.90;;;;;;5032066;28;20053;-77
2024/01/02 08:17:01;;;;;;;5.35;4.60;;;8.20;99.90;;;;;;5030411;28;20136;-77
2024/01/02 08:19:27;;;;;;;5.65;2.00;;;8.20;99.90;;;;;;5029056;28;20088;-76
2024/01/02 08:21:53;;;;;;;3.97;1.80;;;8.40;99.90;;;;;;5030064;28;20042;-79
2024/01/02 08:24:18;;;;;;;2.88;1.90;;;8.30;99.90;;;;;;5023017;28;20045;-78
2024/01/02 08:26:44;;;;;;;8.55;5.50;;;8.40;99.90;;;;;;5041439;28;20153;-78
2024/01/02 08:29:10;;;;;;;5.95;2.22;;;8.50;99.90;;;;;;5032371;28;20099;-76
2024/01/02 08:31:35;;;;;;;10.93;6.13;;;8.40;99.90;;;;;;5062412;28;20038;-78
2024/01/02 08:34:01;;;;;;;10.15;6.72;;;8.60;99.90;;;;;;5048741;28;20041;-78
2024/01/02 08:36:26;;;;;;;5.35;2.60;;;8.70;99.90;;;;;;5024291;28;20037;-78
2024/01/02 08:38:52;;;;;;;10.38;6.70;;;8.70;99.90;;;;;;5039575;28;20049;-76
2024/01/02 08:41:17;;;;;;;10.90;6.97;;;8.80;99.90;;;;;;5060938;28;20045;-75
2024/01/02 08:43:43;;;;;;;10.25;6.90;;;8.80;99.90;;;;;;5017743;28;20042;-76
2024/01/02 08:46:09;;;;;;;13.30;7.60;;;9.00;99.90;;;;;;5062041;28;20094;-76
2024/01/02 08:48:35;;;;;;;13.60;8.80;;;9.00;99.90;;;;;;5061219;28;20665;-77
2024/01/02 08:51:00;;;;;;;11.30;7.57;;;9.00;99.90;;;;;;5044270;28;20048;-77
2024/01/02 08:53:26;;;;;;;12.50;7.45;;;9.10;99.90;;;;;;5059490;28;20362;-76
2024/01/02 08:55:51;;;;;;;12.77;7.63;;;9.10;99.90;;;;;;5031245;28;20679;-78
2024/01/02 08:58:18;;;;;;;14.57;7.47;;;9.20;99.90;;;;;;5026762;28;20053;-78
2024/01/02 09:00:44;;;;;;;12.50;7.20;;;9.30;99.90;;;;;;5026379;28;20386;-78
2024/01/02 09:03:09;;;;;;;14.57;7.43;;;9.40;99.90;;;;;;5026175;28;20061;-78
2024/01/02 09:05:35;;;;;;;10.63;6.75;;;9.40;99.90;;;;;;5028064;28;20041;-77
2024/01/02 09:08:01;;;;;;;10.57;6.68;;;9.50;99.90;;;;;;5030574;28;20473;-75
2024/01/02 09:10:27;;;;;;;13.10;6.38;;;9.50;99.90;;;;;;5022310;28;20401;-76
2024/01/02 09:12:52;;;;;;;12.02;6.15;;;9.60;99.90;;;;;;5029780;28;20049;-75
2024/01/02 09:15:18;;;;;;;12.93;6.15;;;9.70;99.90;;;;;;5038217;28;20393;-75
2024/01/02 09:17:43;;;;;;;11.73;7.00;;;9.70;99.90;;;;;;5029369;28;20045;-75
2024/01/02 09:20:11;;;;;;;11.48;6.28;;;9.70;99.90;;;;;;5019552;28;20072;-75
2024/01/02 09:22:37;;;;;;;;;;;9.80;99.90;;;;;;5021965;28;20053;-78
2024/01/02 09:25:14;;;;;;;12.60;5.40;;;9.80;99.90;;;;;;5028403;28;20445;-77
2024/01/02 09:27:41;;;;;;;8.82;3.13;;;9.80;99.90;;;;;;5028111;28;20045;-78
2024/01/02 09:30:09;;;;;;;10.80;2.67;;;9.80;99.90;;;;;;5037849;28;20488;-77
2024/01/02 09:32:34;;;;;;;13.40;4.78;;;9.80;99.90;;;;;;5032574;28;20053;-75
2024/01/02 09:35:00;;;;;;;11.95;4.38;;;9.90;99.90;;;;;;5031812;28;20551;-77
2024/01/02 09:37:26;;;;;;;13.18;4.68;;;10.00;99.90;;;;;;5025040;28;20045;-76
2024/01/02 09:39:53;;;;;;;10.77;4.80;;;10.00;99.90;;;;;;5021878;28;20226;-76
2024/01/02 09:42:37;;;;;;;;;;;10.10;99.90;;;;;;5027454;28;20594;-76
2024/01/02 09:45:28;;;;;;;13.27;5.15;;;10.10;99.90;;;;;;5016847;28;19967;-76
2024/01/02 09:48:21;;;;;;;14.02;5.05;;;10.10;99.90;;;;;;5059914;28;20421;-75
2024/01/02 09:51:12;;;;;;;15.95;5.15;;;10.20;99.90;;;;;;5027975;28;20589;-74
2024/01/02 09:53:56;;;;;;;18.13;4.30;;;10.20;99.90;;;;;;5027646;28;20159;-76
2024/01/02 09:56:34;;;;;;;19.27;4.20;;;10.20;99.90;;;;;;5051418;28;20081;-77
2024/01/02 09:59:23;;;;;;;14.30;4.43;;;10.30;99.90;;;;;;5024307;28;20511;-79
2024/01/02 10:01:57;;;;;;;17.42;4.40;;;10.30;99.90;;;;;;5017840;28;20053;-79
2024/01/02 10:04:38;;;;;;;16.35;3.88;;;10.40;99.90;;;;;;5027849;28;20050;-78
2024/01/02 10:07:07;;;;;;;15.07;4.03;;;10.40;99.90;;;;;;5031167;28;20083;-78
2024/01/02 10:09:51;;;;;;;16.55;4.15;;;10.40;99.90;;;;;;5062021;28;20052;-79
2024/01/02 10:12:17;;;;;;;15.82;3.78;;;10.50;99.90;;;;;;5026914;28;20091;-78
2024/01/02 10:15:01;;;;;;;19.45;3.92;;;10.40;99.90;;;;;;5025602;28;20497;-78
2024/01/02 10:18:04;;;;;;;17.55;4.50;;;10.50;99.90;;;;;;5031516;28;20045;-76
2024/01/02 10:20:45;;;;;;;17.60;4.10;;;10.60;99.90;;;;;;5028365;28;20060;-75
2024/01/02 10:23:55;;;;;;;17.73;3.90;;;10.70;99.90;;;;;;5021204;28;20053;-76
2024/01/02 10:26:24;;;;;;;19.27;4.20;;;10.70;99.90;;;;;;5024785;28;20046;-76
2024/01/02 10:28:50;;;;;;;18.92;3.80;;;10.70;99.90;;;;;;5047780;28;20064;-76
2024/01/02 10:31:25;;;;;;;23.13;5.60;;;10.80;99.90;;;;;;5046013;28;20056;-75
2024/01/02 10:34:16;;;;;;;19.42;4.63;;;10.80;99.90;;;;;;5031359;28;20381;-75
2024/01/02 10:36:55;;;;;;;20.58;4.43;;;10.90;99.90;;;;;;5030533;28;20037;-74
2024/01/02 10:39:42;;;;;;;20.40;5.18;;;10.90;99.90;;;;;;5030059;28;20046;-77
2024/01/02 10:42:30;;;;;;;21.52;5.03;;;11.00;99.90;;;;;;5018069;28;20528;-76
2024/01/02 10:45:17;;;;;;;21.60;5.05;;;11.00;99.90;;;;;;5032703;28;20110;-79
2024/01/02 10:48:06;;;;;;;21.13;5.05;;;11.00;99.90;;;;;;5027927;28;20037;-77
2024/01/02 10:50:49;;;;;;;17.38;4.70;;;10.90;99.90;;;;;;5023674;28;20050;-76
2024/01/02 10:53:25;;;;;;;24.98;5.60;;;11.00;99.90;;;;;;5020083;28;20630;-75
2024/01/02 10:56:18;;;;;;;26.42;5.88;;;11.00;99.90;;;;;;5030577;28;20046;-75
2024/01/02 10:58:58;;;;;;;22.50;5.20;;;11.00;99.90;;;;;;5029259;28;20067;-77
2024/01/02 11:01:26;;;;;;;24.52;5.47;;;11.00;99.90;;;;;;5031007;28;20103;-77
2024/01/02 11:04:07;;;;;;;22.08;5.53;;;11.00;99.90;;;;;;5032994;28;20065;-75
2024/01/02 11:06:49;;;;;;;25.42;5.57;;;11.00;99.90;;;;;;5021152;28;20444;-75
2024/01/02 11:09:41;;;;;;;25.02;6.15;;;11.00;99.90;;;;;;5052547;28;20081;-75
2024/01/02 11:12:08;;;;;;;25.17;6.05;;;11.00;99.90;;;;;;5049802;28;20048;-78
2024/01/02 11:14:38;;;;;;;21.10;6.35;;;11.00;99.90;;;;;;5028303;28;20405;-77
2024/01/02 11:17:05;;;;;;;22.15;5.75;;;11.00;99.90;;;;;;5028690;28;20054;-78
2024/01/02 11:19:43;;;;;;;25.90;6.30;;;11.00;99.90;;;;;;5044993;28;20072;-78
2024/01/02 11:22:22;;;;;;;21.73;6.03;;;11.00;99.90;;;;;;5030617;28;20535;-77
2024/01/02 11:24:56;;;;;;;20.75;6.18;;;11.00;99.90;;;;;;5018256;28;20084;-77
2024/01/02 11:27:23;;;;;;;24.95;6.40;;;10.90;99.90;;;;;;5047708;28;20045;-79
2024/01/02 11:29:53;;;;;;;23.10;5.88;;;10.90;99.90;;;;;;5037497;28;20045;-76
2024/01/02 11:32:32;;;;;;;26.45;6.85;;;11.00;99.90;;;;;;5043604;28;20124;-79
2024/01/02 11:35:05;;;;;;;24.98;6.82;;;11.00;99.90;;;;;;5028226;28;20053;-80
2024/01/02 11:37:35;;;;;;;27.35;6.55;;;11.00;99.90;;;;;;5060219;28;20124;-80
2024/01/02 11:40:21;;;;;;;27.00;6.90;;;11.00;99.90;;;;;;5027018;28;20563;-76
2024/01/02 11:43:14;;;;;;;26.67;7.35;;;11.00;99.90;;;;;;5027466;28;20076;-74
2024/01/02 11:45:49;;;;;;;19.27;4.15;;;11.00;99.90;;;;;;5043089;28;20046;-75
2024/01/02 11:48:25;;;;;;;27.35;7.72;;;11.00;99.90;;;;;;5023637;28;20041;-75
2024/01/02 11:51:14;;;;;;;27.15;8.20;;;11.00;99.90;;;;;;5044163;28;20049;-76
2024/01/02 11:53:49;;;;;;;27.33;8.32;;;11.00;99.90;;;;;;5028236;28;20056;-75
2024/01/02 11:56:18;;;;;;;31.92;7.88;;;11.00;99.90;;;;;;5028256;28;20073;-75
2024/01/02 11:58:50;;;;;;;28.92;8.35;;;11.00;99.90;;;;;;5027988;28;20561;-75
2024/01/02 12:01:25;;;;;;;25.50;7.82;;;11.00;99.90;;;;;;5059701;28;20066;-76
2024/01/02 12:04:05;;;;;;;26.42;7.65;;;11.00;99.90;;;;;;5016645;28;20056;-75
2024/01/02 12:06:39;;;;;;;28.50;7.15;;;11.10;99.90;;;;;;5034181;28;20127;-75
2024/01/02 12:09:11;;;;;;;23.33;7.28;;;11.00;99.90;;;;;;5027868;28;20053;-75
2024/01/02 12:11:57;;;;;;;29.33;7.68;;;11.00;99.90;;;;;;5029261;28;20049;-76
2024/01/02 12:14:44;;;;;;;26.90;7.60;;;11.10;99.90;;;;;;5027317;28;20041;-75
2024/01/02 12:17:15;;;;;;;27.15;7.05;;;11.10;99.90;;;;;;5025554;28;20053;-76
2024/01/02 12:19:44;;;;;;;29.60;8.13;;;11.10;99.90;;;;;;5029194;28;20441;-75
2024/01/02 12:22:12;;;;;;;33.15;7.85;;;11.10;99.90;;;;;;5050058;28;20061;-76
2024/01/02 12:24:38;;;;;;;29.88;6.97;;;11.00;99.90;;;;;;5027698;28;20085;-76
2024/01/02 12:27:06;;;;;;;35.13;7.95;;;11.10;99.90;;;;;;5043163;28;20047;-76
2024/01/02 12:29:43;;;;;;;27.55;7.80;;;11.10;99.90;;;;;;5023933;28;20045;-76
2024/01/02 12:32:50;;;;;;;25.50;6.53;;;11.10;99.90;;;;;;5020434;28;20037;-77
2024/01/02 12:35:26;;;;;;;28.17;6.68;;;11.10;99.90;;;;;;5028115;28;20038;-75
2024/01/02 12:38:04;;;;;;;27.02;7.13;;;11.10;99.90;;;;;;5025231;28;20034;-76
2024/01/02 12:40:33;;;;;;;32.65;7.95;;;11.10;99.90;;;;;;5021534;28;20762;-75
2024/01/02 12:43:01;;;;;;;32.25;7.93;;;11.10;99.90;;;;;;5020880;28;20041;-81
2024/01/02 12:45:33;;;;;;;36.40;8.73;;;11.10;99.90;;;;;;5019842;28;20051;-77
2024/01/02 12:48:05;;;;;;;36.10;11.90;;;11.10;99.90;;;;;;5023540;28;20045;-77
2024/01/02 12:50:34;;;;;;;40.22;16.23;;;11.10;99.90;;;;;;5036214;28;20378;-78
2024/01/02 12:53:06;;;;;;;31.65;12.40;;;11.10;99.90;;;;;;5026214;28;20053;-79
2024/01/02 12:55:36;;;;;;;35.30;9.48;;;11.10;99.90;;;;;;5025614;28;20030;-76